createdAt,value
2018-02-23T00:00:20.840Z,95262
2018-02-23T00:05:49.002Z,95265
2018-02-23T00:11:17.164Z,95258
2018-02-23T00:16:45.324Z,95268
2018-02-23T00:22:14.431Z,95259
2018-02-23T00:27:42.599Z,95265
2018-02-23T00:33:11.531Z,95252
2018-02-23T00:38:40.469Z,95253
2018-02-23T00:44:09.404Z,95241
2018-02-23T00:49:38.337Z,95241
2018-02-23T00:55:07.256Z,95255
2018-02-23T01:00:35.487Z,95251
2018-02-23T01:06:03.759Z,95257
2018-02-23T01:11:31.914Z,95242
2018-02-23T01:17:00.095Z,95241
2018-02-23T01:22:28.231Z,95244
2018-02-23T01:27:56.396Z,95247
2018-02-23T01:33:25.501Z,95243
2018-02-23T01:38:53.656Z,95227
2018-02-23T01:44:21.822Z,95223
2018-02-23T01:49:49.975Z,95223
2018-02-23T01:55:18.118Z,95220
2018-02-23T02:00:47.051Z,95220
2018-02-23T02:06:15.202Z,95218
2018-02-23T02:11:43.356Z,95216
2018-02-23T02:17:11.513Z,95216
2018-02-23T02:22:40.434Z,95209
2018-02-23T02:28:09.510Z,95192
2018-02-23T02:33:37.683Z,95194
2018-02-23T02:39:06.734Z,95194
2018-02-23T02:44:35.845Z,95194
2018-02-23T02:50:04.019Z,95188
2018-02-23T02:55:32.955Z,95193
2018-02-23T03:01:01.900Z,95181
2018-02-23T03:06:30.845Z,95183
2018-02-23T03:11:59.786Z,95191
2018-02-23T03:17:27.938Z,95191
2018-02-23T03:22:56.104Z,95182
2018-02-23T03:28:25.047Z,95178
2018-02-23T03:33:53.958Z,95173
2018-02-23T03:39:22.118Z,95187
2018-02-23T03:44:51.249Z,95185
2018-02-23T03:50:20.162Z,95172
2018-02-23T03:55:48.324Z,95173
2018-02-23T04:01:16.477Z,95174
2018-02-23T04:06:44.642Z,95171
2018-02-23T04:12:12.794Z,95168
2018-02-23T04:17:40.962Z,95167
2018-02-23T04:23:09.120Z,95174
2018-02-23T04:28:38.058Z,95175
2018-02-23T04:34:07.026Z,95183
2018-02-23T04:39:35.240Z,95179
2018-02-23T04:45:03.618Z,95171
2018-02-23T04:50:31.776Z,95175
2018-02-23T04:56:01.063Z,95180
2018-02-23T05:01:29.951Z,95178
2018-02-23T05:06:58.218Z,95174
2018-02-23T05:12:26.395Z,95173
2018-02-23T05:17:54.617Z,95194
2018-02-23T05:23:23.549Z,95184
2018-02-23T05:28:52.485Z,95188
2018-02-23T05:34:21.433Z,95185
2018-02-23T05:39:50.353Z,95167
2018-02-23T05:45:18.504Z,95188
2018-02-23T05:50:46.753Z,95181
2018-02-23T05:56:17.130Z,95168
2018-02-23T06:01:45.286Z,95185
2018-02-23T06:07:13.447Z,95194
2018-02-23T06:12:41.590Z,95205
2018-02-23T06:18:09.768Z,95202
2018-02-23T06:23:37.937Z,95212
2018-02-23T06:29:06.098Z,95213
2018-02-23T06:34:34.259Z,95226
2018-02-23T06:40:03.192Z,95214
2018-02-23T06:45:32.125Z,95208
2018-02-23T06:51:01.079Z,95216
2018-02-23T06:56:29.254Z,95222
2018-02-23T07:01:57.427Z,95218
2018-02-23T07:07:25.578Z,95219
2018-02-23T07:12:54.490Z,95201
2018-02-23T07:18:22.644Z,95195
2018-02-23T07:23:50.807Z,95213
2018-02-23T07:29:19.733Z,95216
2018-02-23T07:34:47.892Z,95219
2018-02-23T07:40:16.044Z,95214
2018-02-23T07:45:44.505Z,95220
2018-02-23T07:51:13.491Z,95225
2018-02-23T07:56:41.669Z,95232
2018-02-23T08:02:10.578Z,95240
2018-02-23T08:07:38.741Z,95237
2018-02-23T08:13:06.891Z,95250
2018-02-23T08:18:35.155Z,95246
2018-02-23T08:24:04.085Z,95246
2018-02-23T08:29:32.252Z,95249
2018-02-23T08:35:01.193Z,95246
2018-02-23T08:40:29.370Z,95246
2018-02-23T08:45:57.535Z,95251
2018-02-23T08:51:25.729Z,95261
2018-02-23T08:56:55.392Z,95256
2018-02-23T09:02:23.578Z,95265
2018-02-23T09:07:52.002Z,95274
2018-02-23T09:13:20.172Z,95272
2018-02-23T09:18:48.314Z,95276
2018-02-23T09:24:16.574Z,95279
2018-02-23T09:29:45.512Z,95283
2018-02-23T09:35:14.463Z,95279
2018-02-23T09:40:42.729Z,95281
2018-02-23T09:46:11.642Z,95284
2018-02-23T09:51:39.797Z,95295
2018-02-23T09:57:07.961Z,95270
2018-02-23T10:02:36.118Z,95282
2018-02-23T10:08:05.063Z,95286
2018-02-23T10:13:34.005Z,95285
2018-02-23T10:19:02.989Z,95286
2018-02-23T10:24:31.221Z,95288
2018-02-23T10:29:59.399Z,95292
2018-02-23T10:35:27.578Z,95291
2018-02-23T10:40:55.775Z,95297
2018-02-23T10:46:23.931Z,95282
2018-02-23T10:51:52.107Z,95294
2018-02-23T10:57:20.278Z,95295
2018-02-23T11:02:48.422Z,95316
2018-02-23T11:08:16.592Z,95305
2018-02-23T11:13:44.768Z,95307
2018-02-23T11:19:12.936Z,95303
2018-02-23T11:24:41.157Z,95303
2018-02-23T11:30:09.352Z,95293
2018-02-23T11:35:37.516Z,95272
2018-02-23T11:41:05.908Z,95279
2018-02-23T11:46:34.794Z,95278
2018-02-23T11:52:02.968Z,95272
2018-02-23T11:57:36.716Z,95294
2018-02-23T12:03:04.918Z,95290
2018-02-23T12:08:33.112Z,95313
2018-02-23T12:14:01.269Z,95314
2018-02-23T12:19:29.475Z,95307
2018-02-23T12:24:57.626Z,95313
2018-02-23T12:30:25.935Z,95293
2018-02-23T12:35:54.168Z,95290
2018-02-23T12:41:22.357Z,95307
2018-02-23T12:46:50.697Z,95291
2018-02-23T12:52:18.901Z,95309
2018-02-23T12:57:47.071Z,95303
2018-02-23T13:03:15.302Z,95312
2018-02-23T13:08:44.224Z,95315
2018-02-23T13:14:12.389Z,95306
2018-02-23T13:19:40.572Z,95311
2018-02-23T13:25:08.719Z,95300
2018-02-23T13:30:37.967Z,95300
2018-02-23T13:36:06.230Z,95298
2018-02-23T13:41:40.035Z,95297
2018-02-23T13:47:08.964Z,95302
2018-02-23T13:52:37.143Z,95312
2018-02-23T13:58:05.342Z,95315
2018-02-23T14:03:33.530Z,95315
2018-02-23T14:09:02.499Z,95319
2018-02-23T14:14:30.908Z,95315
2018-02-23T14:19:59.063Z,95309
2018-02-23T14:25:27.257Z,95310
2018-02-23T14:30:55.431Z,95313
2018-02-23T14:36:23.590Z,95318
2018-02-23T14:41:52.640Z,95310
2018-02-23T14:47:20.837Z,95300
2018-02-23T14:52:49.093Z,95297
2018-02-23T14:58:18.453Z,95293
2018-02-23T15:03:46.658Z,95283
2018-02-23T15:09:15.926Z,95285
2018-02-23T15:14:44.085Z,95284
2018-02-23T15:20:12.260Z,95281
2018-02-23T15:25:40.471Z,95268
2018-02-23T15:31:26.385Z,95278
2018-02-23T15:36:55.439Z,95287
2018-02-23T15:42:23.665Z,95287
2018-02-23T15:54:03.698Z,95291
2018-02-23T15:59:32.612Z,95298
2018-02-23T16:05:00.772Z,95308
2018-02-23T16:10:28.941Z,95315
2018-02-23T16:15:57.098Z,95324
2018-02-23T16:21:26.021Z,95314
2018-02-23T16:26:54.175Z,95330
2018-02-23T16:32:22.357Z,95324
2018-02-23T16:37:50.535Z,95330
2018-02-23T16:43:18.960Z,95331
2018-02-23T16:48:47.330Z,95334
2018-02-23T16:54:15.543Z,95338
2018-02-23T16:59:44.226Z,95330
2018-02-23T17:05:12.388Z,95340
2018-02-23T17:10:40.546Z,95341
2018-02-23T17:16:09.480Z,95354
2018-02-23T17:21:38.409Z,95348
2018-02-23T17:27:07.337Z,95345
2018-02-23T17:32:36.391Z,95355
2018-02-23T17:38:05.316Z,95342
2018-02-23T17:43:33.674Z,95336
2018-02-23T17:49:01.829Z,95343
2018-02-23T17:54:30.001Z,95351
2018-02-23T17:59:58.985Z,95346
2018-02-23T18:05:27.201Z,95343
2018-02-23T18:10:55.364Z,95344
2018-02-23T18:16:24.296Z,95348
2018-02-23T18:21:52.462Z,95357
2018-02-23T18:27:20.684Z,95358
2018-02-23T18:32:48.895Z,95354
2018-02-23T18:38:17.047Z,95355
2018-02-23T18:43:45.214Z,95368
2018-02-23T18:49:14.202Z,95375
2018-02-23T18:54:42.436Z,95358
2018-02-23T19:00:10.697Z,95362
2018-02-23T19:05:38.979Z,95363
2018-02-23T19:11:07.957Z,95366
2018-02-23T19:16:36.896Z,95377
2018-02-23T19:22:05.910Z,95373
2018-02-23T19:27:35.808Z,95371
2018-02-23T19:33:04.728Z,95378
2018-02-23T19:38:33.698Z,95385
2018-02-23T19:44:02.345Z,95382
2018-02-23T19:49:30.785Z,95385
2018-02-23T19:55:00.140Z,95375
2018-02-23T20:00:28.357Z,95386
2018-02-23T20:05:56.525Z,95373
2018-02-23T20:11:25.459Z,95387
2018-02-23T20:16:54.402Z,95389
2018-02-23T20:22:25.302Z,95387
2018-02-23T20:27:53.450Z,95397
2018-02-23T20:33:21.639Z,95405
2018-02-23T20:38:49.819Z,95389
2018-02-23T20:44:18.062Z,95389
2018-02-23T20:49:47.935Z,95393
2018-02-23T20:55:16.261Z,95397
2018-02-23T21:00:45.258Z,95394
2018-02-23T21:06:14.563Z,95389
2018-02-23T21:11:42.766Z,95387
2018-02-23T21:17:11.688Z,95382
2018-02-23T21:22:41.769Z,95380
2018-02-23T21:28:10.883Z,95378
2018-02-23T21:33:39.141Z,95382
2018-02-23T21:39:07.315Z,95382
2018-02-23T21:44:47.548Z,95379
2018-02-23T21:50:15.763Z,95382
2018-02-23T21:55:44.718Z,95377
2018-02-23T22:01:12.945Z,95375
2018-02-23T22:06:41.060Z,95390
2018-02-23T22:12:09.210Z,95378
2018-02-23T22:17:37.414Z,95386
2018-02-23T22:23:05.642Z,95391
2018-02-23T22:28:33.846Z,95394
2018-02-23T22:34:01.987Z,95392
2018-02-23T22:39:30.176Z,95394
2018-02-23T22:44:59.153Z,95397
2018-02-23T22:50:27.322Z,95390
2018-02-23T22:55:58.213Z,95376
2018-02-23T23:01:27.160Z,95386
2018-02-23T23:06:55.372Z,95389
2018-02-23T23:12:24.311Z,95397
2018-02-23T23:17:53.339Z,95393
2018-02-23T23:23:21.601Z,95383
2018-02-23T23:28:49.802Z,95391
2018-02-23T23:34:17.998Z,95395
2018-02-23T23:39:47.176Z,95392
2018-02-23T23:45:15.313Z,95398
2018-02-23T23:50:44.440Z,95411
2018-02-23T23:56:12.592Z,95406
